createdAt,value
2019-05-03T00:00:57.846Z,8.70
2019-05-03T00:03:28.476Z,9.70
2019-05-03T00:06:05.926Z,9.40
2019-05-03T00:08:37.069Z,11.10
2019-05-03T00:11:07.768Z,12.23
2019-05-03T00:13:38.160Z,11.03
2019-05-03T00:16:13.097Z,13.40
2019-05-03T00:18:43.480Z,12.73
2019-05-03T00:21:17.830Z,10.38
2019-05-03T00:23:48.290Z,10.00
2019-05-03T00:26:18.795Z,9.98
2019-05-03T00:28:49.183Z,10.65
2019-05-03T00:31:19.616Z,9.48
2019-05-03T00:33:51.744Z,11.33
2019-05-03T00:36:24.016Z,9.25
2019-05-03T00:38:55.781Z,10.63
2019-05-03T00:41:26.844Z,13.55
2019-05-03T00:43:57.406Z,11.15
2019-05-03T00:46:28.052Z,12.03
2019-05-03T00:48:58.813Z,12.00
2019-05-03T00:51:31.806Z,11.18
2019-05-03T00:54:03.303Z,13.45
2019-05-03T00:56:34.574Z,11.22
2019-05-03T00:59:05.245Z,11.10
2019-05-03T01:01:35.638Z,8.88
2019-05-03T01:04:06.771Z,10.53
2019-05-03T01:06:37.168Z,8.43
2019-05-03T01:09:11.743Z,10.78
2019-05-03T01:11:41.839Z,8.85
2019-05-03T01:14:13.550Z,10.95
2019-05-03T01:16:44.678Z,9.95
2019-05-03T01:19:15.091Z,7.42
2019-05-03T01:21:46.965Z,9.38
2019-05-03T01:24:18.340Z,10.70
2019-05-03T01:26:49.015Z,10.55
2019-05-03T01:29:19.402Z,9.70
2019-05-03T01:31:49.844Z,10.53
2019-05-03T01:34:21.785Z,11.43
2019-05-03T01:36:52.513Z,8.48
2019-05-03T01:39:23.645Z,8.03
2019-05-03T01:41:56.346Z,8.53
2019-05-03T01:44:27.689Z,8.93
2019-05-03T01:46:59.777Z,8.48
2019-05-03T01:49:34.976Z,8.58
2019-05-03T01:52:12.903Z,9.40
2019-05-03T01:54:44.670Z,7.40
2019-05-03T01:57:16.164Z,9.55
2019-05-03T01:59:48.285Z,8.18
2019-05-03T02:02:32.846Z,14.90
2019-05-03T02:05:17.613Z,9.28
2019-05-03T02:07:51.968Z,8.73
2019-05-03T02:10:26.873Z,7.90
2019-05-03T02:12:58.250Z,9.93
2019-05-03T02:15:29.056Z,10.53
2019-05-03T02:18:02.516Z,7.20
2019-05-03T02:20:33.589Z,7.85
2019-05-03T02:23:04.284Z,8.50
2019-05-03T02:25:35.862Z,9.65
2019-05-03T02:28:06.537Z,11.45
2019-05-03T02:33:27.943Z,11.73
2019-05-03T02:35:58.337Z,9.73
2019-05-03T02:38:30.492Z,9.70
2019-05-03T02:41:04.697Z,12.20
2019-05-03T02:43:37.672Z,10.23
2019-05-03T02:46:18.896Z,8.38
2019-05-03T02:48:57.102Z,8.73
2019-05-03T02:51:28.507Z,8.70
2019-05-03T02:53:59.314Z,10.65
2019-05-03T02:56:30.687Z,9.40
2019-05-03T02:59:06.002Z,9.20
2019-05-03T03:01:35.786Z,8.43
2019-05-03T03:04:09.487Z,8.13
2019-05-03T03:06:45.473Z,8.80
2019-05-03T03:09:36.144Z,9.53
2019-05-03T03:12:08.064Z,8.80
2019-05-03T03:14:42.629Z,10.80
2019-05-03T03:17:17.401Z,12.05
2019-05-03T03:19:49.740Z,9.93
2019-05-03T03:22:25.669Z,9.55
2019-05-03T03:24:56.852Z,8.68
2019-05-03T03:27:32.698Z,10.23
2019-05-03T03:30:32.524Z,11.15
2019-05-03T03:33:08.623Z,11.20
2019-05-03T03:35:40.575Z,12.20
2019-05-03T03:38:15.338Z,7.80
2019-05-03T03:40:55.528Z,10.88
2019-05-03T03:43:20.871Z,26.15
2019-05-03T03:45:55.556Z,14.45
2019-05-03T03:51:15.843Z,9.38
2019-05-03T03:53:48.210Z,13.30
2019-05-03T03:56:21.139Z,12.35
2019-05-03T03:58:57.428Z,12.65
2019-05-03T04:01:29.496Z,9.58
2019-05-03T04:04:01.343Z,13.10
2019-05-03T04:06:46.555Z,9.95
2019-05-03T04:09:19.065Z,7.53
2019-05-03T04:12:11.480Z,9.13
2019-05-03T04:14:58.804Z,10.13
2019-05-03T04:17:48.647Z,9.08
2019-05-03T04:20:20.481Z,10.55
2019-05-03T04:22:50.850Z,9.30
2019-05-03T04:25:21.610Z,8.43
2019-05-03T04:27:55.783Z,9.50
2019-05-03T04:30:28.342Z,10.38
2019-05-03T04:32:59.763Z,11.05
2019-05-03T04:38:20.134Z,10.72
2019-05-03T04:40:50.530Z,9.85
2019-05-03T04:43:21.634Z,10.13
2019-05-03T04:46:06.682Z,10.28
2019-05-03T04:48:39.672Z,10.05
2019-05-03T04:51:10.812Z,9.60
2019-05-03T04:53:45.447Z,9.83
2019-05-03T04:56:17.668Z,15.78
2019-05-03T04:58:48.083Z,13.30
2019-05-03T05:01:19.222Z,7.92
2019-05-03T05:03:50.125Z,11.30
2019-05-03T05:06:21.255Z,10.78
2019-05-03T05:08:52.000Z,7.60
2019-05-03T05:11:26.110Z,10.35
2019-05-03T05:13:56.190Z,11.33
2019-05-03T05:16:27.037Z,9.40
2019-05-03T05:19:05.293Z,15.18
2019-05-03T05:21:39.063Z,7.12
2019-05-03T05:24:15.170Z,7.00
2019-05-03T05:26:55.567Z,9.10
2019-05-03T05:29:31.752Z,7.87
2019-05-03T05:32:02.311Z,9.58
2019-05-03T05:34:34.928Z,9.25
2019-05-03T05:37:05.695Z,8.13
2019-05-03T05:39:36.376Z,7.83
2019-05-03T05:42:07.984Z,8.68
2019-05-03T05:44:38.779Z,6.45
2019-05-03T05:47:11.872Z,7.03
2019-05-03T05:49:47.256Z,6.92
2019-05-03T05:54:49.092Z,7.50
2019-05-03T05:57:37.272Z,7.55
2019-05-03T06:00:11.620Z,7.60
2019-05-03T06:02:44.693Z,5.92
2019-05-03T06:05:16.240Z,6.55
2019-05-03T06:07:55.076Z,9.63
2019-05-03T06:13:42.040Z,6.22
2019-05-03T06:16:15.498Z,6.37
2019-05-03T06:18:54.756Z,7.80
2019-05-03T06:24:34.984Z,6.65
2019-05-03T06:27:24.499Z,9.15
2019-05-03T06:29:57.017Z,4.83
2019-05-03T06:32:30.344Z,5.53
2019-05-03T06:35:02.317Z,5.17
2019-05-03T06:37:35.414Z,7.83
2019-05-03T06:40:09.915Z,4.35
2019-05-03T06:42:51.547Z,6.97
2019-05-03T06:45:15.081Z,6.90
2019-05-03T06:47:49.777Z,11.48
2019-05-03T06:50:19.597Z,9.10
2019-05-03T06:52:49.997Z,5.67
2019-05-03T06:55:20.642Z,4.17
2019-05-03T06:57:54.520Z,4.58
2019-05-03T07:00:32.468Z,5.65
2019-05-03T07:03:04.906Z,8.73
2019-05-03T07:05:36.798Z,3.95
2019-05-03T07:08:15.254Z,4.30
2019-05-03T07:10:50.678Z,5.65
2019-05-03T07:15:50.475Z,5.28
2019-05-03T07:18:20.861Z,6.20
2019-05-03T07:20:57.064Z,6.37
2019-05-03T07:23:27.701Z,7.62
2019-05-03T07:26:00.152Z,4.83
2019-05-03T07:28:45.918Z,3.90
2019-05-03T07:31:14.944Z,3.47
2019-05-03T07:33:46.360Z,3.85
2019-05-03T07:36:16.758Z,5.50
2019-05-03T07:38:48.545Z,4.78
2019-05-03T07:41:20.044Z,4.08
2019-05-03T07:43:51.460Z,4.58
2019-05-03T07:46:24.580Z,11.10
2019-05-03T07:49:01.881Z,5.87
2019-05-03T07:51:27.815Z,6.12
2019-05-03T07:53:58.476Z,3.27
2019-05-03T07:56:39.621Z,4.78
2019-05-03T07:59:10.040Z,6.75
2019-05-03T08:01:45.595Z,4.25
2019-05-03T08:04:16.203Z,2.80
2019-05-03T08:06:46.596Z,5.12
2019-05-03T08:09:17.046Z,5.45
2019-05-03T08:11:47.792Z,5.95
2019-05-03T08:14:18.326Z,5.42
2019-05-03T08:16:49.872Z,6.25
2019-05-03T08:19:23.322Z,5.67
2019-05-03T08:21:52.181Z,6.95
2019-05-03T08:24:22.622Z,4.65
2019-05-03T08:26:53.156Z,6.87
2019-05-03T08:29:26.699Z,8.20
2019-05-03T08:31:58.512Z,6.50
2019-05-03T08:34:40.351Z,5.95
2019-05-03T08:37:12.241Z,9.15
2019-05-03T08:39:44.735Z,6.10
2019-05-03T08:42:25.443Z,6.78
2019-05-03T08:44:55.908Z,7.87
2019-05-03T08:47:27.131Z,5.05
2019-05-03T08:49:58.347Z,8.85
2019-05-03T08:52:28.863Z,9.60
2019-05-03T08:54:59.243Z,5.92
2019-05-03T08:57:29.681Z,7.17
2019-05-03T09:00:00.078Z,8.25
2019-05-03T09:02:34.463Z,6.60
2019-05-03T09:05:05.233Z,7.65
2019-05-03T09:07:36.027Z,7.92
2019-05-03T09:10:16.843Z,9.98
2019-05-03T09:13:03.255Z,6.37
2019-05-03T09:15:32.493Z,7.80
2019-05-03T09:18:04.775Z,5.58
2019-05-03T09:20:36.717Z,6.30
2019-05-03T09:23:27.525Z,11.88
2019-05-03T09:25:57.926Z,9.40
2019-05-03T09:28:29.253Z,6.35
2019-05-03T09:30:59.972Z,5.10
2019-05-03T09:33:31.760Z,4.62
2019-05-03T09:36:02.148Z,5.47
2019-05-03T09:38:34.867Z,3.58
2019-05-03T09:41:06.016Z,4.80
2019-05-03T09:43:36.568Z,5.83
2019-05-03T09:46:07.065Z,3.47
2019-05-03T09:48:38.160Z,2.77
2019-05-03T09:51:08.618Z,4.62
2019-05-03T09:53:50.593Z,4.15
2019-05-03T09:56:22.489Z,4.25
2019-05-03T09:58:53.165Z,6.22
2019-05-03T10:01:25.572Z,7.25
2019-05-03T10:03:56.098Z,5.50
2019-05-03T10:06:26.472Z,4.22
2019-05-03T10:08:57.556Z,10.68
2019-05-03T10:11:28.252Z,3.83
2019-05-03T10:13:59.208Z,5.45
2019-05-03T10:16:31.020Z,5.40
2019-05-03T10:19:01.409Z,4.70
2019-05-03T10:21:35.447Z,6.03
2019-05-03T10:24:10.100Z,4.92
2019-05-03T10:26:41.568Z,5.22
2019-05-03T10:29:12.018Z,3.40
2019-05-03T10:31:56.028Z,3.47
2019-05-03T10:34:26.608Z,4.53
2019-05-03T10:36:57.060Z,4.87
2019-05-03T10:39:29.698Z,4.67
2019-05-03T10:42:04.675Z,6.95
2019-05-03T10:44:35.807Z,5.00
2019-05-03T10:47:07.061Z,5.75
2019-05-03T10:49:37.812Z,4.87
2019-05-03T10:52:09.641Z,5.15
2019-05-03T10:54:41.215Z,6.12
2019-05-03T10:57:12.994Z,4.08
2019-05-03T10:59:44.985Z,6.10
2019-05-03T11:02:25.234Z,4.03
2019-05-03T11:04:57.032Z,4.53
2019-05-03T11:07:27.508Z,3.70
2019-05-03T11:09:58.296Z,4.50
2019-05-03T11:12:29.573Z,5.33
2019-05-03T11:15:01.624Z,6.03
2019-05-03T11:17:34.821Z,3.92
2019-05-03T11:20:06.512Z,6.62
2019-05-03T11:22:56.410Z,6.03
2019-05-03T11:25:26.499Z,5.47
2019-05-03T11:27:57.967Z,5.33
2019-05-03T11:30:28.481Z,7.58
2019-05-03T11:33:09.470Z,4.70
2019-05-03T11:35:41.475Z,7.08
2019-05-03T11:38:18.315Z,7.45
2019-05-03T11:40:50.247Z,6.72
2019-05-03T11:43:22.060Z,5.35
2019-05-03T11:48:42.445Z,9.38
2019-05-03T11:51:15.080Z,10.00
2019-05-03T11:53:45.132Z,9.03
2019-05-03T11:56:17.341Z,10.90
2019-05-03T11:58:48.245Z,11.68
2019-05-03T12:01:20.917Z,13.93
2019-05-03T12:03:51.496Z,18.57
2019-05-03T12:06:21.896Z,16.07
2019-05-03T12:08:52.278Z,9.90
2019-05-03T12:11:30.430Z,7.92
2019-05-03T12:14:15.159Z,8.05
2019-05-03T12:17:18.211Z,8.85
2019-05-03T12:19:42.027Z,8.25
2019-05-03T12:22:13.303Z,6.70
2019-05-03T12:24:45.759Z,7.28
2019-05-03T12:27:16.624Z,6.25
2019-05-03T12:29:47.160Z,7.10
2019-05-03T12:32:17.561Z,6.10
2019-05-03T12:34:48.016Z,5.92
2019-05-03T12:37:21.229Z,7.20
2019-05-03T12:39:51.694Z,6.35
2019-05-03T12:42:22.230Z,7.50
2019-05-03T12:44:55.156Z,7.50
2019-05-03T12:47:25.749Z,7.58
2019-05-03T12:50:16.903Z,4.28
2019-05-03T12:52:50.876Z,7.80
2019-05-03T12:55:21.507Z,10.03
2019-05-03T12:57:51.977Z,8.25
2019-05-03T13:00:40.897Z,6.53
2019-05-03T13:03:12.736Z,7.60
2019-05-03T13:05:44.894Z,7.50
2019-05-03T13:08:36.309Z,7.47
2019-05-03T13:11:08.255Z,6.25
2019-05-03T13:16:32.785Z,7.25
2019-05-03T13:19:08.873Z,5.10
2019-05-03T13:42:14.913Z,7.37
2019-05-03T13:44:48.261Z,7.47
2019-05-03T13:47:18.736Z,6.55
2019-05-03T13:49:51.772Z,7.30
2019-05-03T13:52:22.211Z,6.15
2019-05-03T13:54:54.517Z,7.10
2019-05-03T13:57:26.766Z,6.40
2019-05-03T13:59:57.735Z,6.35
2019-05-03T14:05:29.853Z,7.05
2019-05-03T14:08:05.021Z,8.25
2019-05-03T14:10:36.156Z,5.62
2019-05-03T14:13:06.987Z,5.30
2019-05-03T14:15:40.332Z,7.83
2019-05-03T14:18:18.897Z,7.22
2019-05-03T14:24:08.052Z,6.17
2019-05-03T14:26:41.950Z,6.60
2019-05-03T14:39:00.149Z,8.18
2019-05-03T14:42:02.371Z,7.78
2019-05-03T14:44:43.144Z,8.50
2019-05-03T14:47:21.065Z,6.35
2019-05-03T14:50:11.602Z,7.00
2019-05-03T15:02:47.737Z,8.28
2019-05-03T15:05:55.027Z,6.70
2019-05-03T15:22:59.352Z,6.58
2019-05-03T15:25:29.986Z,7.12
2019-05-03T15:28:02.082Z,7.72
2019-05-03T15:30:34.986Z,5.83
2019-05-03T15:33:05.212Z,7.28
2019-05-03T15:35:40.349Z,4.55
2019-05-03T15:38:11.171Z,7.17
2019-05-03T15:40:42.764Z,5.28
2019-05-03T15:43:21.109Z,5.30
2019-05-03T15:45:55.103Z,5.22
2019-05-03T15:48:26.772Z,7.95
2019-05-03T15:50:59.099Z,6.00
2019-05-03T15:53:29.436Z,8.28
2019-05-03T15:56:02.473Z,5.08
2019-05-03T15:58:36.454Z,4.97
2019-05-03T16:01:08.304Z,6.87
2019-05-03T16:03:38.698Z,6.42
2019-05-03T16:06:10.526Z,8.75
2019-05-03T16:08:41.364Z,7.50
2019-05-03T16:11:12.141Z,9.05
2019-05-03T16:13:44.667Z,4.62
2019-05-03T16:16:15.374Z,5.40
2019-05-03T16:18:52.125Z,6.33
2019-05-03T16:21:22.927Z,4.65
2019-05-03T16:23:55.440Z,6.33
2019-05-03T16:26:25.836Z,5.83
2019-05-03T16:28:59.910Z,7.03
2019-05-03T16:31:30.677Z,7.58
2019-05-03T16:34:04.179Z,9.58
2019-05-03T16:36:36.895Z,7.42
2019-05-03T16:39:08.295Z,7.97
2019-05-03T16:41:40.212Z,5.00
2019-05-03T16:44:10.882Z,5.80
2019-05-03T16:46:41.672Z,7.78
2019-05-03T16:49:12.311Z,4.80
2019-05-03T16:54:35.063Z,6.15
2019-05-03T16:57:06.092Z,5.58
2019-05-03T16:59:37.859Z,8.45
2019-05-03T17:02:08.524Z,6.78
2019-05-03T17:07:51.122Z,6.00
2019-05-03T17:10:26.458Z,7.28
2019-05-03T17:12:57.274Z,8.50
2019-05-03T17:15:30.633Z,6.85
2019-05-03T17:18:01.088Z,4.85
2019-05-03T17:20:31.878Z,8.83
2019-05-03T17:23:04.524Z,4.35
2019-05-03T17:25:35.170Z,8.38
2019-05-03T17:28:07.345Z,7.50
2019-05-03T17:30:38.005Z,10.55
2019-05-03T17:33:08.645Z,10.30
2019-05-03T17:35:39.295Z,11.08
2019-05-03T17:38:10.797Z,9.90
2019-05-03T17:40:59.475Z,8.00
2019-05-03T17:43:49.754Z,8.43
2019-05-03T17:46:20.542Z,11.28
2019-05-03T17:48:51.278Z,6.37
2019-05-03T17:51:41.604Z,9.25
2019-05-03T17:54:16.275Z,6.85
2019-05-03T17:57:04.584Z,9.07
2019-05-03T17:59:52.516Z,8.53
2019-05-03T18:02:24.563Z,8.10
2019-05-03T18:05:14.661Z,6.20
2019-05-03T18:07:56.098Z,11.00
2019-05-03T18:10:27.996Z,7.35
2019-05-03T18:12:58.756Z,6.50
2019-05-03T18:15:29.516Z,6.85
2019-05-03T18:18:00.303Z,8.90
2019-05-03T18:20:31.018Z,7.62
2019-05-03T18:23:02.489Z,6.90
2019-05-03T18:25:33.058Z,8.45
2019-05-03T18:28:03.958Z,6.92
2019-05-03T18:30:34.957Z,8.78
2019-05-03T18:33:05.662Z,5.80
2019-05-03T18:35:36.404Z,6.97
2019-05-03T18:38:08.347Z,5.45
2019-05-03T18:40:40.288Z,7.33
2019-05-03T18:43:15.349Z,7.50
2019-05-03T18:46:14.306Z,7.10
2019-05-03T18:48:45.601Z,8.73
2019-05-03T18:51:16.283Z,5.62
2019-05-03T18:53:47.017Z,7.62
2019-05-03T18:56:17.598Z,6.80
2019-05-03T18:58:48.260Z,7.47
2019-05-03T19:01:25.852Z,10.75
2019-05-03T19:03:57.881Z,6.37
2019-05-03T19:06:28.529Z,8.43
2019-05-03T19:09:21.191Z,8.05
2019-05-03T19:12:15.280Z,8.33
2019-05-03T19:14:46.252Z,8.15
2019-05-03T19:17:35.532Z,5.97
2019-05-03T19:20:08.729Z,8.70
2019-05-03T19:22:39.579Z,6.72
2019-05-03T19:25:10.409Z,7.20
2019-05-03T19:27:41.184Z,7.10
2019-05-03T19:30:14.757Z,7.67
2019-05-03T19:32:47.548Z,8.08
2019-05-03T19:35:18.333Z,7.17
2019-05-03T19:37:49.940Z,6.28
2019-05-03T19:40:20.651Z,9.15
2019-05-03T19:42:52.308Z,6.60
2019-05-03T19:45:24.838Z,8.00
2019-05-03T19:47:55.378Z,5.95
2019-05-03T19:50:27.258Z,8.38
2019-05-03T19:53:12.056Z,7.75
2019-05-03T19:55:50.670Z,8.35
2019-05-03T19:58:21.627Z,6.87
2019-05-03T20:00:59.295Z,10.25
2019-05-03T20:03:54.552Z,7.35
2019-05-03T20:06:30.154Z,8.10
2019-05-03T20:09:02.456Z,10.38
2019-05-03T20:11:34.886Z,7.75
2019-05-03T20:14:05.734Z,9.38
2019-05-03T20:16:37.850Z,6.67
2019-05-03T20:19:17.671Z,6.15
2019-05-03T20:21:40.760Z,8.18
2019-05-03T20:24:11.466Z,7.75
2019-05-03T20:26:44.953Z,8.05
2019-05-03T20:29:16.004Z,7.25
2019-05-03T20:31:47.100Z,8.18
2019-05-03T20:34:17.831Z,8.23
2019-05-03T20:36:48.479Z,10.05
2019-05-03T20:39:19.095Z,7.80
2019-05-03T20:41:49.735Z,8.68
2019-05-03T20:44:21.841Z,6.60
2019-05-03T20:46:55.022Z,9.00
2019-05-03T20:49:25.872Z,9.53
2019-05-03T20:51:56.552Z,9.63
2019-05-03T20:54:27.243Z,13.13
2019-05-03T20:56:58.054Z,9.35
2019-05-03T20:59:28.618Z,8.15
2019-05-03T21:01:59.327Z,6.47
2019-05-03T21:04:30.113Z,6.55
2019-05-03T21:07:04.699Z,10.30
2019-05-03T21:09:35.408Z,6.87
2019-05-03T21:12:08.801Z,6.55
2019-05-03T21:14:40.313Z,10.82
2019-05-03T21:17:12.203Z,9.95
2019-05-03T21:19:44.732Z,7.15
2019-05-03T21:22:17.042Z,8.65
2019-05-03T21:24:49.299Z,7.62
2019-05-03T21:27:20.684Z,7.50
2019-05-03T21:29:55.403Z,10.03
2019-05-03T21:32:26.136Z,11.70
2019-05-03T21:35:08.175Z,10.00
2019-05-03T21:37:38.931Z,10.53
2019-05-03T21:40:09.708Z,9.60
2019-05-03T21:42:41.037Z,8.70
2019-05-03T21:45:15.036Z,11.60
2019-05-03T21:47:54.597Z,11.57
2019-05-03T21:50:25.081Z,9.93
2019-05-03T21:52:57.492Z,8.70
2019-05-03T21:55:30.790Z,8.30
2019-05-03T21:58:01.522Z,10.48
2019-05-03T22:00:50.723Z,10.75
2019-05-03T22:03:21.568Z,10.48
2019-05-03T22:05:55.389Z,10.05
2019-05-03T22:08:24.838Z,13.10
2019-05-03T22:10:55.633Z,12.15
2019-05-03T22:13:26.668Z,9.98
2019-05-03T22:16:04.946Z,9.08
2019-05-03T22:18:37.154Z,8.43
2019-05-03T22:21:09.317Z,12.50
2019-05-03T22:23:45.269Z,12.82
2019-05-03T22:26:16.303Z,9.10
2019-05-03T22:28:46.956Z,12.07
2019-05-03T22:31:18.320Z,10.63
2019-05-03T22:33:50.551Z,14.00
2019-05-03T22:36:24.474Z,13.03
2019-05-03T22:38:54.701Z,13.53
2019-05-03T22:41:25.480Z,13.13
2019-05-03T22:43:56.877Z,13.70
2019-05-03T22:46:27.448Z,14.30
2019-05-03T22:48:57.973Z,12.88
2019-05-03T22:51:29.380Z,13.90
2019-05-03T22:54:00.091Z,14.55
2019-05-03T22:56:31.339Z,15.85
2019-05-03T22:59:05.334Z,15.58
2019-05-03T23:01:35.355Z,18.07
2019-05-03T23:04:06.209Z,17.30
2019-05-03T23:06:37.180Z,16.48
2019-05-03T23:09:08.843Z,19.12
2019-05-03T23:11:40.018Z,16.90
2019-05-03T23:14:11.827Z,22.93
2019-05-03T23:16:44.597Z,18.48
2019-05-03T23:19:15.340Z,17.20
2019-05-03T23:21:50.397Z,19.60
2019-05-03T23:24:21.674Z,20.48
2019-05-03T23:26:52.476Z,17.70
2019-05-03T23:29:23.124Z,16.75
2019-05-03T23:32:15.097Z,17.55
2019-05-03T23:34:46.428Z,15.68
2019-05-03T23:37:17.867Z,17.42
2019-05-03T23:40:08.701Z,16.12
2019-05-03T23:42:39.517Z,15.05
2019-05-03T23:45:10.144Z,18.65
2019-05-03T23:47:42.356Z,16.40
2019-05-03T23:50:17.143Z,13.85
2019-05-03T23:55:28.212Z,12.53
2019-05-03T23:57:59.584Z,10.08
